createdAt,value
2022-08-11T00:02:12.755Z,91.58
2022-08-11T00:07:20.211Z,90.65
2022-08-11T00:12:24.737Z,93.35
2022-08-11T00:17:32.713Z,93.16
2022-08-11T00:22:38.475Z,92.35
2022-08-11T00:27:43.572Z,93.01
2022-08-11T00:32:59.168Z,92.02
2022-08-11T00:38:04.294Z,93.26
2022-08-11T00:43:21.376Z,93.35
2022-08-11T00:48:34.641Z,96.28
2022-08-11T00:53:50.262Z,96.97
2022-08-11T00:59:37.901Z,95.47
2022-08-11T01:05:15.477Z,96.19
2022-08-11T01:10:50.400Z,97.62
2022-08-11T01:16:15.489Z,97.75
2022-08-11T01:21:57.090Z,97.85
2022-08-11T01:27:43.396Z,97.73
2022-08-11T01:33:32.774Z,100.00
2022-08-11T01:39:05.218Z,99.56
2022-08-11T01:44:42.789Z,99.16
2022-08-11T01:50:09.917Z,100.00
2022-08-11T01:55:21.121Z,100.00
2022-08-11T02:00:30.633Z,100.00
2022-08-11T02:05:56.331Z,100.00
2022-08-11T02:11:28.650Z,100.00
2022-08-11T02:16:48.173Z,100.00
2022-08-11T02:22:14.872Z,100.00
2022-08-11T02:27:25.236Z,100.00
2022-08-11T02:32:53.499Z,100.00
2022-08-11T02:38:12.873Z,100.00
2022-08-11T02:43:32.050Z,100.00
2022-08-11T02:49:07.047Z,100.00
2022-08-11T02:54:22.564Z,100.00
2022-08-11T02:59:54.276Z,100.00
2022-08-11T03:05:07.328Z,100.00
2022-08-11T03:10:19.512Z,100.00
2022-08-11T03:16:01.420Z,100.00
2022-08-11T03:21:11.380Z,100.00
2022-08-11T03:26:25.817Z,100.00
2022-08-11T03:31:35.629Z,100.00
2022-08-11T03:37:34.875Z,100.00
2022-08-11T03:42:51.252Z,100.00
2022-08-11T03:48:20.931Z,100.00
2022-08-11T03:53:50.405Z,100.00
2022-08-11T03:59:25.982Z,100.00
2022-08-11T04:04:59.893Z,100.00
2022-08-11T04:10:42.007Z,100.00
2022-08-11T04:16:17.276Z,100.00
2022-08-11T04:21:57.321Z,100.00
2022-08-11T04:27:39.132Z,100.00
2022-08-11T04:33:36.510Z,100.00
2022-08-11T04:39:00.067Z,100.00
2022-08-11T04:44:51.964Z,100.00
2022-08-11T04:50:37.731Z,100.00
2022-08-11T04:56:22.222Z,100.00
2022-08-11T05:01:42.900Z,100.00
2022-08-11T05:07:09.197Z,100.00
2022-08-11T05:12:34.975Z,100.00
2022-08-11T05:18:02.692Z,100.00
2022-08-11T05:23:27.928Z,100.00
2022-08-11T05:28:53.442Z,100.00
2022-08-11T05:34:20.520Z,100.00
2022-08-11T05:39:44.402Z,100.00
2022-08-11T05:45:15.574Z,98.61
2022-08-11T05:50:40.762Z,94.95
2022-08-11T05:56:04.612Z,90.68
2022-08-11T06:01:09.393Z,89.87
2022-08-11T06:06:14.535Z,86.49
2022-08-11T06:11:19.271Z,74.84
2022-08-11T06:16:43.858Z,70.76
2022-08-11T06:21:49.514Z,68.89
2022-08-11T06:27:11.663Z,60.34
2022-08-11T06:32:17.673Z,56.34
2022-08-11T06:37:30.389Z,51.65
2022-08-11T06:42:49.311Z,48.47
2022-08-11T06:47:53.727Z,47.54
2022-08-11T06:52:59.329Z,46.49
2022-08-11T06:58:22.826Z,44.62
2022-08-11T07:03:30.730Z,42.58
2022-08-11T07:09:22.514Z,42.23
2022-08-11T07:14:46.906Z,41.47
2022-08-11T07:20:11.988Z,39.52
2022-08-11T07:25:34.911Z,40.43
2022-08-11T07:30:41.928Z,39.39
2022-08-11T07:35:51.010Z,39.08
2022-08-11T07:41:00.831Z,39.56
2022-08-11T07:46:23.151Z,39.16
2022-08-11T07:51:44.634Z,40.12
2022-08-11T07:57:07.465Z,39.07
2022-08-11T08:02:31.739Z,37.68
2022-08-11T08:07:56.132Z,36.25
2022-08-11T08:13:19.911Z,35.70
2022-08-11T08:18:27.631Z,36.26
2022-08-11T08:23:34.473Z,35.21
2022-08-11T08:28:40.970Z,35.85
2022-08-11T08:33:44.821Z,35.64
2022-08-11T08:38:51.445Z,36.08
2022-08-11T08:44:27.640Z,35.52
2022-08-11T08:49:35.222Z,36.07
2022-08-11T08:54:47.390Z,35.22
2022-08-11T08:59:53.174Z,34.29
2022-08-11T09:04:58.646Z,35.76
2022-08-11T09:10:03.147Z,35.93
2022-08-11T09:15:12.032Z,34.36
2022-08-11T09:20:19.981Z,34.94
2022-08-11T09:25:45.127Z,35.22
2022-08-11T09:30:55.440Z,34.79
2022-08-11T09:36:22.263Z,35.36
2022-08-11T09:41:26.408Z,33.77
2022-08-11T09:47:19.858Z,33.05
2022-08-11T09:52:25.957Z,33.06
2022-08-11T09:57:47.978Z,32.67
2022-08-11T10:02:57.004Z,31.94
2022-08-11T10:08:02.099Z,33.70
2022-08-11T10:14:31.296Z,32.58
2022-08-11T10:18:49.641Z,31.46
2022-08-11T10:24:12.367Z,32.30
2022-08-11T10:29:37.473Z,31.95
2022-08-11T10:34:54.586Z,31.95
2022-08-11T10:40:03.540Z,31.72
2022-08-11T10:45:30.311Z,31.70
2022-08-11T10:50:53.407Z,30.89
2022-08-11T10:56:16.070Z,30.52
2022-08-11T11:01:32.671Z,31.05
2022-08-11T11:06:47.722Z,31.02
2022-08-11T11:12:12.235Z,29.60
2022-08-11T11:17:38.901Z,29.82
2022-08-11T11:22:48.234Z,30.54
2022-08-11T11:28:07.372Z,29.61
2022-08-11T11:33:19.723Z,29.44
2022-08-11T11:38:25.349Z,29.57
2022-08-11T11:43:29.326Z,30.32
2022-08-11T11:48:33.700Z,30.14
2022-08-11T11:53:38.736Z,30.88
2022-08-11T11:59:00.758Z,31.11
2022-08-11T12:04:07.364Z,31.10
2022-08-11T12:09:14.963Z,29.86
2022-08-11T12:14:20.603Z,29.92
2022-08-11T12:19:28.818Z,30.02
2022-08-11T12:24:59.385Z,29.65
2022-08-11T12:30:08.571Z,29.99
2022-08-11T12:35:17.022Z,30.07
2022-08-11T12:41:12.134Z,30.25
2022-08-11T12:46:11.530Z,30.29
2022-08-11T12:52:02.994Z,29.34
2022-08-11T12:57:37.386Z,29.45
2022-08-11T13:03:00.076Z,29.08
2022-08-11T13:08:04.829Z,29.11
2022-08-11T13:13:52.672Z,28.37
2022-08-11T13:18:35.676Z,28.29
2022-08-11T13:23:41.104Z,28.69
2022-08-11T13:29:06.197Z,28.40
2022-08-11T13:34:10.967Z,29.56
2022-08-11T13:39:15.408Z,29.51
2022-08-11T13:44:25.606Z,28.96
2022-08-11T13:49:31.664Z,29.34
2022-08-11T13:54:38.470Z,29.32
2022-08-11T13:59:52.068Z,28.83
2022-08-11T14:04:58.670Z,28.56
2022-08-11T14:10:04.338Z,28.45
2022-08-11T14:15:20.203Z,27.58
2022-08-11T14:20:38.084Z,28.65
2022-08-11T14:26:04.858Z,28.17
2022-08-11T14:31:10.821Z,27.89
2022-08-11T14:36:15.020Z,27.96
2022-08-11T14:41:37.253Z,28.11
2022-08-11T14:47:24.130Z,27.52
2022-08-11T14:52:30.543Z,27.32
2022-08-11T14:58:04.815Z,28.79
2022-08-11T15:03:14.339Z,29.03
2022-08-11T15:08:19.359Z,29.86
2022-08-11T15:13:23.065Z,29.00
2022-08-11T15:18:28.427Z,29.39
2022-08-11T15:23:55.779Z,29.18
2022-08-11T15:29:19.466Z,29.32
2022-08-11T15:34:47.903Z,29.35
2022-08-11T15:40:30.141Z,29.05
2022-08-11T15:45:49.235Z,30.00
2022-08-11T15:51:00.032Z,30.84
2022-08-11T15:56:05.271Z,30.30
2022-08-11T16:01:27.722Z,31.17
2022-08-11T16:06:34.981Z,30.50
2022-08-11T16:11:40.841Z,31.14
2022-08-11T16:16:46.698Z,31.68
2022-08-11T16:21:53.822Z,31.82
2022-08-11T16:27:11.084Z,31.52
2022-08-11T16:32:21.218Z,31.21
2022-08-11T16:37:45.408Z,32.28
2022-08-11T16:43:11.409Z,31.94
2022-08-11T16:48:35.671Z,32.64
2022-08-11T16:53:46.036Z,32.94
2022-08-11T16:59:18.019Z,31.55
2022-08-11T17:04:46.741Z,31.67
2022-08-11T17:10:39.066Z,32.68
2022-08-11T17:15:56.009Z,33.20
2022-08-11T17:20:59.951Z,33.05
2022-08-11T17:26:58.884Z,33.25
2022-08-11T17:32:23.237Z,33.92
2022-08-11T17:37:33.236Z,34.13
2022-08-11T17:42:58.005Z,33.57
2022-08-11T17:48:21.223Z,34.54
2022-08-11T17:54:10.008Z,34.42
2022-08-11T17:59:32.354Z,34.89
2022-08-11T18:04:36.454Z,35.05
2022-08-11T18:09:57.787Z,35.56
2022-08-11T18:15:22.638Z,36.50
2022-08-11T18:20:54.276Z,36.06
2022-08-11T18:26:19.424Z,36.52
2022-08-11T18:31:43.842Z,37.35
2022-08-11T18:37:11.234Z,37.93
2022-08-11T18:42:42.310Z,39.15
2022-08-11T18:48:07.210Z,39.57
2022-08-11T18:53:31.982Z,40.78
2022-08-11T18:58:55.636Z,42.74
2022-08-11T19:04:20.829Z,44.73
2022-08-11T19:09:42.823Z,45.72
2022-08-11T19:15:06.560Z,47.20
2022-08-11T19:20:32.014Z,48.35
2022-08-11T19:25:54.639Z,48.81
2022-08-11T19:31:16.232Z,50.60
2022-08-11T19:36:40.496Z,52.58
2022-08-11T19:42:03.036Z,53.45
2022-08-11T19:47:25.360Z,54.77
2022-08-11T19:52:53.396Z,55.78
2022-08-11T19:58:15.772Z,55.50
2022-08-11T20:03:37.174Z,58.02
2022-08-11T20:09:02.495Z,58.70
2022-08-11T20:14:25.489Z,59.30
2022-08-11T20:19:55.031Z,64.45
2022-08-11T20:25:19.613Z,63.16
2022-08-11T20:30:41.565Z,62.92
2022-08-11T20:36:02.832Z,63.13
2022-08-11T20:41:27.643Z,61.98
2022-08-11T20:46:50.216Z,68.24
2022-08-11T20:52:11.926Z,65.46
2022-08-11T20:58:00.073Z,65.45
2022-08-11T21:03:35.875Z,67.83
2022-08-11T21:08:59.862Z,66.80
2022-08-11T21:14:26.665Z,66.57
2022-08-11T21:20:01.691Z,70.50
2022-08-11T21:25:31.288Z,68.70
2022-08-11T21:30:56.336Z,71.00
2022-08-11T21:36:21.135Z,69.43
2022-08-11T21:41:42.357Z,69.62
2022-08-11T21:47:15.586Z,69.83
2022-08-11T21:52:39.352Z,70.54
2022-08-11T21:58:02.282Z,71.33
2022-08-11T22:03:25.147Z,71.23
2022-08-11T22:08:47.623Z,72.10
2022-08-11T22:14:08.805Z,74.10
2022-08-11T22:19:33.140Z,74.84
2022-08-11T22:24:56.312Z,74.60
2022-08-11T22:30:18.608Z,77.54
2022-08-11T22:35:41.919Z,77.61
2022-08-11T22:41:03.456Z,77.19
2022-08-11T22:46:24.714Z,77.81
2022-08-11T22:51:48.667Z,78.57
2022-08-11T22:57:10.082Z,78.96
2022-08-11T23:02:32.091Z,79.87
2022-08-11T23:07:55.903Z,80.59
2022-08-11T23:13:22.306Z,80.58
2022-08-11T23:18:44.787Z,82.45
2022-08-11T23:24:08.642Z,82.93
2022-08-11T23:29:30.537Z,85.71
2022-08-11T23:35:04.473Z,85.70
2022-08-11T23:40:37.952Z,83.86
2022-08-11T23:45:59.224Z,84.09
2022-08-11T23:51:21.368Z,84.68
2022-08-11T23:56:43.907Z,84.52
